Time;durP1;ratioP1;P1;durP2;ratioP2;P2;SDS_P1;SDS_P2;PMS_P1;PMS_P2;Temp;Humidity;BMP_temperature;BMP_pressure;BME280_temperature;BME280_humidity;BME280_pressure;Samples;Min_cycle;Max_cycle;Signal;HPM_P1;HPM_P2
2022/01/14 00:01:52;;;;;;;345.90;321.90;;;5.10;99.90;;;;;;4994672;28;20202;-82
2022/01/14 00:04:19;;;;;;;347.43;323.10;;;5.20;99.90;;;;;;4997519;28;20206;-81
2022/01/14 00:06:45;;;;;;;345.80;321.87;;;5.10;99.90;;;;;;5008183;28;20348;-81
2022/01/14 00:09:12;;;;;;;346.07;322.37;;;5.10;99.90;;;;;;4981684;28;20315;-82
2022/01/14 00:11:52;;;;;;;349.20;323.37;;;5.10;99.90;;;;;;4992571;28;20179;-82
2022/01/14 00:16:46;;;;;;;350.57;325.57;;;5.00;99.90;;;;;;5011380;28;20197;-82
2022/01/14 00:19:12;;;;;;;351.13;326.47;;;5.10;99.90;;;;;;5008348;28;20231;-81
2022/01/14 00:21:40;;;;;;;349.03;324.37;;;5.10;99.90;;;;;;5006901;28;20192;-82
2022/01/14 00:32:19;;;;;;;349.77;324.63;;;5.20;99.90;;;;;;5012779;28;20203;-82
2022/01/14 00:34:45;;;;;;;351.87;326.07;;;5.20;99.90;;;;;;5011001;28;20287;-82
2022/01/14 00:37:13;;;;;;;351.90;326.07;;;5.20;99.90;;;;;;5005752;28;20211;-81
2022/01/14 00:39:38;;;;;;;348.77;323.27;;;5.10;99.90;;;;;;5007149;28;20269;-82
2022/01/14 00:42:04;;;;;;;348.00;323.93;;;5.10;99.90;;;;;;4994569;28;20203;-81
2022/01/14 00:44:30;;;;;;;348.67;324.43;;;5.10;99.90;;;;;;5008302;28;20692;-82
2022/01/14 00:46:55;;;;;;;346.63;322.20;;;5.10;99.90;;;;;;5005838;28;20191;-82
2022/01/14 00:49:21;;;;;;;349.83;325.27;;;5.20;99.90;;;;;;4995956;28;20599;-83
2022/01/14 00:51:47;;;;;;;345.57;321.33;;;5.20;99.90;;;;;;5007889;28;20567;-80
2022/01/14 00:54:15;;;;;;;345.30;320.57;;;5.10;99.90;;;;;;5011909;28;20203;-81
2022/01/14 00:59:14;;;;;;;350.87;325.50;;;5.20;99.90;;;;;;4992449;28;21097;-80
2022/01/14 01:01:45;;;;;;;344.07;319.67;;;5.10;99.90;;;;;;5002664;28;20188;-83
2022/01/14 01:04:13;;;;;;;344.33;318.73;;;5.10;99.90;;;;;;5017460;28;20283;-82
2022/01/14 01:06:40;;;;;;;343.10;318.63;;;5.10;99.90;;;;;;5007820;28;20539;-82
2022/01/14 01:09:11;;;;;;;344.83;319.93;;;5.10;99.90;;;;;;5004456;28;20947;-81
2022/01/14 01:11:48;;;;;;;346.83;321.03;;;5.10;99.90;;;;;;5009282;28;20188;-80
2022/01/14 01:14:19;;;;;;;341.27;316.57;;;5.00;99.90;;;;;;4996292;28;20183;-82
2022/01/14 01:16:46;;;;;;;344.50;319.93;;;5.10;99.90;;;;;;5006565;28;20184;-82
2022/01/14 01:19:12;;;;;;;349.20;323.73;;;5.00;99.90;;;;;;5009919;28;20210;-81
2022/01/14 01:21:38;;;;;;;346.50;320.13;;;5.00;99.90;;;;;;5008804;28;20188;-83
2022/01/14 01:24:05;;;;;;;346.70;321.20;;;5.00;99.90;;;;;;5003938;28;20249;-82
2022/01/14 01:26:35;;;;;;;344.20;319.90;;;4.90;99.90;;;;;;4987351;28;20188;-82
2022/01/14 01:31:40;;;;;;;340.77;316.37;;;4.90;99.90;;;;;;5008593;28;20175;-82
2022/01/14 01:34:12;;;;;;;341.70;316.90;;;5.00;99.90;;;;;;4987722;28;20350;-81
2022/01/14 01:36:39;;;;;;;341.23;316.77;;;4.90;99.90;;;;;;5007511;28;20512;-82
2022/01/14 01:39:07;;;;;;;341.00;317.37;;;4.90;99.90;;;;;;5008238;28;20950;-83
2022/01/14 01:41:36;;;;;;;340.97;317.67;;;4.90;99.90;;;;;;4994350;28;20224;-80
2022/01/14 01:44:06;;;;;;;342.23;317.80;;;5.00;99.90;;;;;;5004360;28;20191;-81
2022/01/14 01:46:32;;;;;;;343.27;319.47;;;5.00;99.90;;;;;;4991575;28;21052;-82
2022/01/14 01:48:58;;;;;;;342.70;317.40;;;5.00;99.90;;;;;;4979723;28;20619;-79
2022/01/14 01:51:25;;;;;;;344.13;317.10;;;5.00;99.90;;;;;;5009388;28;20192;-82
2022/01/14 01:53:50;;;;;;;342.10;317.17;;;5.00;99.90;;;;;;5008659;28;21069;-82
2022/01/14 01:56:17;;;;;;;341.13;316.57;;;4.90;99.90;;;;;;5005941;28;20226;-81
2022/01/14 01:58:43;;;;;;;343.10;317.07;;;4.90;99.90;;;;;;5009802;28;20389;-81
2022/01/14 02:01:09;;;;;;;342.47;317.73;;;4.90;99.90;;;;;;5007424;28;20187;-82
2022/01/14 02:03:36;;;;;;;342.40;319.03;;;4.90;99.90;;;;;;4989835;28;20226;-81
2022/01/14 02:06:03;;;;;;;340.60;316.97;;;4.90;99.90;;;;;;4996245;28;20207;-80
2022/01/14 02:08:29;;;;;;;338.33;315.10;;;4.90;99.90;;;;;;5007270;28;20546;-81
2022/01/14 02:10:55;;;;;;;336.73;313.33;;;4.90;99.90;;;;;;4983809;28;20229;-82
2022/01/14 02:13:20;;;;;;;338.33;315.03;;;4.90;99.90;;;;;;5003979;28;20215;-81
2022/01/14 02:15:51;;;;;;;337.47;314.40;;;4.90;99.90;;;;;;4990946;28;20207;-82
2022/01/14 02:23:39;;;;;;;342.53;316.30;;;4.90;99.90;;;;;;5004578;28;20534;-80
2022/01/14 02:26:05;;;;;;;337.20;313.67;;;4.90;99.90;;;;;;5006979;28;20969;-81
2022/01/14 02:28:31;;;;;;;338.57;315.70;;;4.90;99.90;;;;;;4968727;28;20207;-81
2022/01/14 02:30:57;;;;;;;337.53;313.87;;;4.80;99.90;;;;;;5005603;28;20203;-82
2022/01/14 02:33:24;;;;;;;336.43;312.80;;;4.80;99.90;;;;;;5009147;28;20696;-82
2022/01/14 02:35:50;;;;;;;337.23;311.37;;;4.80;99.90;;;;;;4973468;28;20196;-82
2022/01/14 02:38:17;;;;;;;334.87;312.17;;;4.70;99.90;;;;;;5009557;28;20257;-81
2022/01/14 02:40:44;;;;;;;338.93;315.13;;;4.80;99.90;;;;;;5002685;28;20306;-82
2022/01/14 02:43:13;;;;;;;335.27;311.67;;;4.70;99.90;;;;;;4976577;28;20219;-80
2022/01/14 02:45:46;;;;;;;338.70;313.60;;;4.80;99.90;;;;;;4995772;28;20203;-81
2022/01/14 02:48:12;;;;;;;336.00;310.40;;;4.70;99.90;;;;;;4993544;28;20663;-80
2022/01/14 02:50:55;;;;;;;333.37;310.27;;;4.70;99.90;;;;;;5005408;28;20311;-80
2022/01/14 02:53:56;;;;;;;335.30;311.83;;;4.70;99.90;;;;;;4996014;28;20227;-81
2022/01/14 02:56:20;;;;;;;333.47;311.37;;;4.60;99.90;;;;;;5002251;28;20236;-82
2022/01/14 02:58:47;;;;;;;333.97;311.03;;;4.60;99.90;;;;;;5009508;28;20223;-82
2022/01/14 03:01:16;;;;;;;336.83;314.43;;;4.70;99.90;;;;;;5008123;28;20215;-81
2022/01/14 03:03:46;;;;;;;333.43;309.33;;;4.70;99.90;;;;;;5011433;28;20258;-81
2022/01/14 03:06:13;;;;;;;330.83;308.60;;;4.70;99.90;;;;;;5008964;28;20203;-82
2022/01/14 03:08:40;;;;;;;334.23;312.17;;;4.70;99.90;;;;;;5010677;28;20249;-81
2022/01/14 03:11:15;;;;;;;329.50;308.13;;;4.70;99.90;;;;;;4993273;28;20745;-83
2022/01/14 03:13:41;;;;;;;333.83;310.60;;;4.60;99.90;;;;;;5013419;28;20325;-80
2022/01/14 03:16:07;;;;;;;329.60;308.27;;;4.60;99.90;;;;;;5011224;28;20279;-82
2022/01/14 03:18:43;;;;;;;330.73;308.30;;;4.50;99.90;;;;;;5011917;28;20656;-82
2022/01/14 03:21:10;;;;;;;334.43;312.20;;;4.50;99.90;;;;;;5008603;28;20198;-81
2022/01/14 03:23:45;;;;;;;337.00;313.63;;;4.50;99.90;;;;;;5001445;28;20188;-81
2022/01/14 03:26:13;;;;;;;340.57;316.83;;;4.50;99.90;;;;;;4990846;28;20274;-81
2022/01/14 03:28:39;;;;;;;340.00;317.63;;;4.50;99.90;;;;;;5010358;28;20204;-80
2022/01/14 03:31:05;;;;;;;341.13;318.50;;;4.40;99.90;;;;;;4998200;28;20275;-81
2022/01/14 03:33:31;;;;;;;342.87;319.43;;;4.40;99.90;;;;;;4999206;28;20200;-82
2022/01/14 03:35:57;;;;;;;340.70;317.30;;;4.40;99.90;;;;;;4975204;28;20196;-81
2022/01/14 03:38:23;;;;;;;340.43;317.57;;;4.40;99.90;;;;;;4999483;28;20560;-80
2022/01/14 03:40:48;;;;;;;340.80;316.60;;;4.50;99.90;;;;;;4977851;28;20326;-80
2022/01/14 03:43:14;;;;;;;343.83;319.97;;;4.50;99.90;;;;;;4997938;28;20270;-82
2022/01/14 03:45:40;;;;;;;345.30;321.13;;;4.40;99.90;;;;;;5012508;28;20990;-83
2022/01/14 03:48:06;;;;;;;349.10;324.67;;;4.50;99.90;;;;;;5009808;28;20179;-82
2022/01/14 03:50:33;;;;;;;351.13;326.67;;;4.40;99.90;;;;;;5007253;28;20403;-82
2022/01/14 03:52:59;;;;;;;348.63;325.27;;;4.40;99.90;;;;;;5013839;28;20614;-79
2022/01/14 03:55:25;;;;;;;349.13;325.10;;;4.40;99.90;;;;;;4997604;28;20199;-81
2022/01/14 03:57:50;;;;;;;351.37;327.90;;;4.40;99.90;;;;;;4976869;28;20207;-80
2022/01/14 04:00:17;;;;;;;353.23;329.10;;;4.40;99.90;;;;;;4994911;28;20215;-82
2022/01/14 04:02:44;;;;;;;350.70;325.93;;;4.50;99.90;;;;;;5009100;28;20177;-81
2022/01/14 04:05:10;;;;;;;345.20;321.63;;;4.50;99.90;;;;;;5007720;28;21111;-80
2022/01/14 04:07:36;;;;;;;350.43;326.80;;;4.50;99.90;;;;;;4993383;28;20195;-80
2022/01/14 04:10:03;;;;;;;351.33;327.27;;;4.50;99.90;;;;;;5004881;28;20199;-81
2022/01/14 04:12:45;;;;;;;347.33;323.27;;;4.50;99.90;;;;;;5005451;28;20311;-80
2022/01/14 04:17:57;;;;;;;346.50;322.90;;;4.50;99.90;;;;;;4981953;28;20209;-80
2022/01/14 04:20:23;;;;;;;353.13;329.30;;;4.50;99.90;;;;;;5009479;28;20681;-81
2022/01/14 04:22:49;;;;;;;349.53;326.23;;;4.50;99.90;;;;;;4995184;28;20207;-81
2022/01/14 04:25:15;;;;;;;356.20;331.83;;;4.60;99.90;;;;;;5011274;28;20194;-81
2022/01/14 04:27:41;;;;;;;353.70;330.03;;;4.60;99.90;;;;;;4998582;28;20199;-81
2022/01/14 04:30:08;;;;;;;355.20;331.50;;;4.50;99.90;;;;;;5010593;28;20258;-80
2022/01/14 04:32:35;;;;;;;355.40;332.60;;;4.40;99.90;;;;;;5010669;28;20709;-79
2022/01/14 04:35:00;;;;;;;358.23;335.00;;;4.40;99.90;;;;;;5007028;28;20630;-81
2022/01/14 04:37:26;;;;;;;359.83;335.87;;;4.30;99.90;;;;;;4975451;28;20195;-80
2022/01/14 04:39:52;;;;;;;357.80;333.00;;;4.30;99.90;;;;;;5005025;28;20223;-80
2022/01/14 04:42:17;;;;;;;357.33;331.53;;;4.30;99.90;;;;;;4988286;28;20232;-81
2022/01/14 04:44:43;;;;;;;353.77;328.83;;;4.30;99.90;;;;;;5010091;28;20200;-79
2022/01/14 04:47:18;;;;;;;355.30;330.77;;;4.30;99.90;;;;;;5009006;28;20650;-81
2022/01/14 04:49:44;;;;;;;359.17;334.47;;;4.30;99.90;;;;;;5005678;28;20195;-81
2022/01/14 04:52:10;;;;;;;352.20;327.93;;;4.30;99.90;;;;;;5006712;28;20618;-82
2022/01/14 04:54:36;;;;;;;355.50;331.53;;;4.30;99.90;;;;;;5005665;28;20335;-81
2022/01/14 04:57:02;;;;;;;357.43;333.23;;;4.30;99.90;;;;;;4973622;28;20274;-80
2022/01/14 04:59:28;;;;;;;356.47;328.70;;;4.20;99.90;;;;;;4991218;28;20289;-80
2022/01/14 05:01:57;;;;;;;367.83;340.20;;;4.20;99.90;;;;;;4990045;28;20215;-79
2022/01/14 05:04:23;;;;;;;376.03;343.57;;;4.20;99.90;;;;;;5006071;28;20196;-79
2022/01/14 05:06:55;;;;;;;371.03;343.50;;;4.20;99.90;;;;;;5012759;28;20257;-81
2022/01/14 05:09:28;;;;;;;373.33;347.17;;;4.20;99.90;;;;;;5008406;28;20607;-80
2022/01/14 05:11:58;;;;;;;374.40;349.77;;;4.20;99.90;;;;;;4980948;28;20205;-80
2022/01/14 05:14:24;;;;;;;382.90;357.40;;;4.20;99.90;;;;;;4996644;28;20254;-81
2022/01/14 05:16:50;;;;;;;379.83;354.20;;;4.20;99.90;;;;;;5013673;28;20970;-81
2022/01/14 05:19:15;;;;;;;386.63;361.50;;;4.30;99.90;;;;;;4992080;28;20220;-79
2022/01/14 05:21:42;;;;;;;378.47;354.13;;;4.30;99.90;;;;;;4982559;28;20650;-79
2022/01/14 05:24:08;;;;;;;382.53;358.20;;;4.30;99.90;;;;;;4991261;28;20236;-80
2022/01/14 05:26:34;;;;;;;379.57;354.33;;;4.30;99.90;;;;;;4988775;28;20219;-80
2022/01/14 05:28:59;;;;;;;372.57;348.47;;;4.30;99.90;;;;;;4986167;28;20216;-80
2022/01/14 05:31:50;;;;;;;378.87;352.77;;;4.40;99.90;;;;;;5009180;28;20188;-81
2022/01/14 05:34:16;;;;;;;381.17;353.20;;;4.30;99.90;;;;;;5010579;28;20198;-80
2022/01/14 05:36:42;;;;;;;378.37;352.33;;;4.30;99.90;;;;;;5008339;28;20231;-80
2022/01/14 05:39:09;;;;;;;385.93;360.90;;;4.30;99.90;;;;;;5005178;28;20238;-81
2022/01/14 05:41:35;;;;;;;389.90;362.53;;;4.30;99.90;;;;;;5004845;28;20235;-80
2022/01/14 05:44:02;;;;;;;383.80;354.00;;;4.30;99.90;;;;;;5006650;28;20187;-81
2022/01/14 05:46:28;;;;;;;389.83;360.03;;;4.30;99.90;;;;;;4995982;28;20237;-80
2022/01/14 05:48:54;;;;;;;388.77;358.93;;;4.20;99.90;;;;;;4984664;28;20195;-80
2022/01/14 05:51:20;;;;;;;389.03;358.67;;;4.20;99.90;;;;;;5008302;28;20565;-81
2022/01/14 05:53:45;;;;;;;394.00;363.37;;;4.10;99.90;;;;;;4991517;28;20610;-81
2022/01/14 05:56:11;;;;;;;393.50;362.40;;;4.00;99.90;;;;;;5009028;28;20188;-81
2022/01/14 05:58:37;;;;;;;389.93;360.20;;;4.00;99.90;;;;;;4985145;28;20204;-81
2022/01/14 06:01:03;;;;;;;390.13;362.43;;;3.90;99.90;;;;;;4990254;28;20183;-80
2022/01/14 06:03:28;;;;;;;397.63;366.40;;;3.90;99.90;;;;;;4992799;28;20196;-79
2022/01/14 06:05:54;;;;;;;392.93;364.83;;;3.90;99.90;;;;;;4973573;28;20634;-81
2022/01/14 06:08:23;;;;;;;404.83;375.07;;;3.90;99.90;;;;;;4980391;28;20199;-80
2022/01/14 06:10:48;;;;;;;402.07;373.17;;;3.90;99.90;;;;;;5002508;28;20564;-82
2022/01/14 06:13:14;;;;;;;403.97;374.70;;;3.90;99.90;;;;;;4959164;28;20290;-80
2022/01/14 06:15:40;;;;;;;408.73;380.00;;;3.90;99.90;;;;;;5002926;28;20311;-80
2022/01/14 06:18:07;;;;;;;408.37;377.57;;;3.90;99.90;;;;;;4994455;28;20222;-81
2022/01/14 06:20:32;;;;;;;416.57;384.70;;;3.90;99.90;;;;;;4965930;28;20250;-82
2022/01/14 06:22:59;;;;;;;425.60;394.73;;;3.80;99.90;;;;;;5008132;28;20623;-82
2022/01/14 06:25:25;;;;;;;420.67;390.50;;;3.80;99.90;;;;;;4976114;28;20258;-80
2022/01/14 06:27:51;;;;;;;423.70;390.93;;;3.80;99.90;;;;;;4973921;28;20265;-81
2022/01/14 06:30:17;;;;;;;424.77;395.27;;;3.80;99.90;;;;;;5006889;28;20223;-81
2022/01/14 06:32:43;;;;;;;439.80;405.60;;;3.80;99.90;;;;;;5006003;28;20188;-81
2022/01/14 06:35:14;;;;;;;435.40;402.60;;;3.80;99.90;;;;;;4998112;28;20188;-81
2022/01/14 06:37:40;;;;;;;430.33;395.47;;;3.80;99.90;;;;;;5010306;28;20192;-81
2022/01/14 06:40:08;;;;;;;434.37;398.07;;;3.80;99.90;;;;;;4994941;28;20200;-81
2022/01/14 06:42:34;;;;;;;432.10;402.77;;;3.80;99.90;;;;;;5009115;28;20689;-81
2022/01/14 06:45:00;;;;;;;435.27;402.17;;;3.80;99.90;;;;;;4987051;28;20238;-81
2022/01/14 06:47:26;;;;;;;436.80;405.30;;;3.80;99.90;;;;;;5012022;28;20241;-81
2022/01/14 06:49:52;;;;;;;437.43;406.13;;;3.80;99.90;;;;;;5012748;28;20183;-80
2022/01/14 06:52:18;;;;;;;442.77;412.70;;;3.80;99.90;;;;;;5018171;28;20191;-80
2022/01/14 06:54:44;;;;;;;440.60;412.20;;;3.80;99.90;;;;;;4990806;28;20192;-82
2022/01/14 06:57:09;;;;;;;445.30;413.40;;;3.90;99.90;;;;;;5016968;28;20641;-81
2022/01/14 06:59:35;;;;;;;442.47;409.53;;;3.90;99.90;;;;;;5006707;28;20211;-81
2022/01/14 07:02:02;;;;;;;444.87;411.93;;;3.90;99.90;;;;;;5013220;28;20303;-80
2022/01/14 07:04:28;;;;;;;450.03;414.93;;;3.90;99.90;;;;;;5011933;28;20196;-80
2022/01/14 07:06:54;;;;;;;442.20;410.10;;;3.90;99.90;;;;;;5007949;28;20210;-82
2022/01/14 07:09:21;;;;;;;444.30;414.97;;;3.80;99.90;;;;;;4993793;28;20199;-81
2022/01/14 07:11:52;;;;;;;444.30;413.57;;;3.80;99.90;;;;;;5002076;28;20219;-80
2022/01/14 07:14:18;;;;;;;447.67;416.23;;;3.90;99.90;;;;;;5011261;28;20557;-79
2022/01/14 07:16:44;;;;;;;443.77;413.03;;;4.00;99.90;;;;;;5010295;28;20194;-80
2022/01/14 07:19:10;;;;;;;446.00;414.70;;;3.90;99.90;;;;;;4989463;28;20208;-81
2022/01/14 07:21:35;;;;;;;452.53;422.47;;;4.00;99.90;;;;;;5002495;28;20184;-81
2022/01/14 07:24:02;;;;;;;448.53;419.10;;;4.00;99.90;;;;;;4988304;28;20398;-81
2022/01/14 07:26:28;;;;;;;450.50;419.73;;;4.00;99.90;;;;;;4996913;28;20195;-80
2022/01/14 07:28:53;;;;;;;455.90;425.50;;;4.00;99.90;;;;;;4992639;28;20204;-81
2022/01/14 07:31:19;;;;;;;445.73;416.30;;;4.00;99.90;;;;;;5005199;28;20206;-82
2022/01/14 07:33:45;;;;;;;457.47;427.23;;;4.10;99.90;;;;;;5013062;28;20187;-80
2022/01/14 07:36:11;;;;;;;457.47;426.33;;;4.10;99.90;;;;;;5010155;28;20199;-82
2022/01/14 07:38:36;;;;;;;467.20;431.50;;;4.10;99.90;;;;;;4998074;28;20226;-82
2022/01/14 07:41:03;;;;;;;451.37;417.17;;;4.10;99.90;;;;;;5014301;28;20602;-80
2022/01/14 07:43:29;;;;;;;462.13;426.27;;;4.00;99.90;;;;;;5013365;28;20180;-81
2022/01/14 07:45:55;;;;;;;464.60;430.37;;;3.90;99.90;;;;;;4991422;28;20192;-82
2022/01/14 07:48:21;;;;;;;457.40;425.13;;;3.80;99.90;;;;;;5001344;28;20195;-81
2022/01/14 07:50:47;;;;;;;459.90;424.57;;;3.80;99.90;;;;;;4986214;28;20265;-81
2022/01/14 07:53:14;;;;;;;468.83;432.23;;;3.80;99.90;;;;;;4967164;28;20254;-82
2022/01/14 07:55:39;;;;;;;464.50;430.00;;;3.80;99.90;;;;;;5012558;28;20206;-82
2022/01/14 07:58:06;;;;;;;460.33;425.90;;;3.70;99.90;;;;;;5010284;28;20191;-80
2022/01/14 08:00:33;;;;;;;456.63;424.40;;;3.80;99.90;;;;;;5003335;28;20212;-81
2022/01/14 08:03:00;;;;;;;465.37;428.80;;;3.80;99.90;;;;;;5009889;28;20265;-81
2022/01/14 08:05:25;;;;;;;471.93;435.60;;;3.80;99.90;;;;;;4997008;28;20180;-82
2022/01/14 08:07:53;;;;;;;463.33;428.93;;;3.70;99.90;;;;;;5010531;28;20263;-81
2022/01/14 08:10:19;;;;;;;464.33;429.60;;;3.70;99.90;;;;;;4994036;28;20192;-81
2022/01/14 08:12:46;;;;;;;462.53;428.43;;;3.70;99.90;;;;;;5011621;28;20294;-82
2022/01/14 08:15:12;;;;;;;466.30;434.23;;;3.80;99.90;;;;;;5008204;28;20327;-80
2022/01/14 08:17:38;;;;;;;469.93;435.10;;;3.70;99.90;;;;;;5007314;28;20199;-80
2022/01/14 08:20:06;;;;;;;469.10;433.33;;;3.80;99.90;;;;;;4990839;28;21182;-80
2022/01/14 08:22:32;;;;;;;465.83;431.37;;;3.80;99.90;;;;;;5005460;28;20211;-80
2022/01/14 08:24:59;;;;;;;469.63;435.63;;;3.80;99.90;;;;;;4988159;28;20238;-80
2022/01/14 08:27:26;;;;;;;462.63;428.97;;;3.80;99.90;;;;;;5008724;28;20230;-80
2022/01/14 08:29:53;;;;;;;454.50;422.77;;;3.80;99.90;;;;;;5008339;28;20228;-80
2022/01/14 08:32:19;;;;;;;463.23;431.50;;;3.80;99.90;;;;;;4994872;28;20253;-81
2022/01/14 08:34:45;;;;;;;449.83;419.47;;;3.80;99.90;;;;;;5010891;28;20255;-81
2022/01/14 08:37:10;;;;;;;450.97;420.43;;;3.90;99.90;;;;;;5007586;28;20200;-81
2022/01/14 08:39:36;;;;;;;444.70;413.87;;;3.90;99.90;;;;;;4978549;28;20216;-82
2022/01/14 08:42:04;;;;;;;429.77;400.70;;;3.90;99.90;;;;;;4971981;28;20239;-80
2022/01/14 08:44:30;;;;;;;436.17;407.33;;;3.90;99.90;;;;;;4994901;28;20274;-81
2022/01/14 08:46:56;;;;;;;412.00;384.53;;;4.00;99.90;;;;;;4994853;28;20330;-80
2022/01/14 08:49:22;;;;;;;397.70;371.83;;;4.00;99.90;;;;;;5008170;28;20270;-81
2022/01/14 08:51:49;;;;;;;385.00;360.50;;;4.10;99.90;;;;;;4977528;28;20196;-80
2022/01/14 08:54:16;;;;;;;375.07;350.97;;;4.10;99.90;;;;;;5006097;28;20199;-80
2022/01/14 08:56:42;;;;;;;365.87;341.47;;;4.20;99.90;;;;;;4986239;28;20779;-80
2022/01/14 08:59:07;;;;;;;348.70;326.80;;;4.20;99.90;;;;;;5005266;28;20298;-81
2022/01/14 09:01:35;;;;;;;326.43;305.73;;;4.20;99.90;;;;;;5005855;28;20196;-81
2022/01/14 09:04:02;;;;;;;314.13;294.97;;;4.20;99.90;;;;;;5017518;28;20184;-81
2022/01/14 09:06:28;;;;;;;300.30;281.50;;;4.20;99.90;;;;;;5010440;28;20696;-81
2022/01/14 09:08:54;;;;;;;279.20;261.97;;;4.30;99.90;;;;;;5007073;28;20191;-81
2022/01/14 09:11:20;;;;;;;274.20;257.43;;;4.30;99.90;;;;;;5007415;28;20180;-81
2022/01/14 09:13:46;;;;;;;263.63;247.67;;;4.40;99.90;;;;;;4991520;28;20617;-82
2022/01/14 09:16:12;;;;;;;246.37;231.27;;;4.40;99.90;;;;;;5006205;28;20195;-80
2022/01/14 09:18:37;;;;;;;235.27;220.77;;;4.40;99.90;;;;;;4972930;28;20199;-80
2022/01/14 09:21:03;;;;;;;224.07;210.17;;;4.50;99.90;;;;;;4996995;28;20200;-80
2022/01/14 09:23:29;;;;;;;219.70;206.10;;;4.50;99.90;;;;;;5000664;28;20848;-80
2022/01/14 09:25:56;;;;;;;212.97;199.87;;;4.50;99.90;;;;;;5000099;28;20226;-81
2022/01/14 09:28:22;;;;;;;201.20;188.30;;;4.60;99.90;;;;;;5010574;28;20223;-81
2022/01/14 09:30:48;;;;;;;195.23;183.07;;;4.60;99.90;;;;;;5016071;28;20369;-81
2022/01/14 09:33:17;;;;;;;192.53;179.93;;;4.70;99.90;;;;;;4991572;28;20230;-82
2022/01/14 09:35:45;;;;;;;188.37;176.97;;;4.80;99.90;;;;;;4979403;28;20199;-82
2022/01/14 09:38:11;;;;;;;179.23;168.13;;;4.90;99.90;;;;;;4979210;28;20275;-80
2022/01/14 09:40:41;;;;;;;169.07;158.47;;;5.00;99.90;;;;;;4975745;28;1153759;-81
2022/01/14 09:43:07;;;;;;;167.90;157.30;;;5.00;99.90;;;;;;5007586;28;20212;-82
2022/01/14 09:45:34;;;;;;;160.93;150.27;;;5.00;99.90;;;;;;4963164;28;20215;-80
2022/01/14 09:48:00;;;;;;;165.93;155.20;;;5.00;99.90;;;;;;5004570;28;20222;-79
2022/01/14 09:50:26;;;;;;;163.17;152.57;;;5.10;99.90;;;;;;5005060;28;20655;-81
2022/01/14 09:52:52;;;;;;;159.50;149.10;;;5.10;99.90;;;;;;4993762;28;20192;-80
2022/01/14 09:55:20;;;;;;;151.57;141.93;;;5.20;99.90;;;;;;4977976;28;20218;-81
2022/01/14 09:57:46;;;;;;;156.37;146.57;;;5.30;99.90;;;;;;5011513;28;20200;-80
2022/01/14 10:00:12;;;;;;;151.77;141.87;;;5.40;99.90;;;;;;4979674;28;20282;-79
2022/01/14 10:02:40;;;;;;;147.33;138.20;;;5.40;99.90;;;;;;5006291;28;20744;-80
2022/01/14 10:05:08;;;;;;;143.00;133.83;;;5.40;99.90;;;;;;5006317;28;20239;-80
2022/01/14 10:07:34;;;;;;;139.37;130.73;;;5.50;99.90;;;;;;5003236;28;20171;-81
2022/01/14 10:10:02;;;;;;;143.97;134.80;;;5.50;99.90;;;;;;5007519;28;20202;-80
2022/01/14 10:12:33;;;;;;;140.17;131.17;;;5.50;99.90;;;;;;5003821;28;20859;-80
2022/01/14 10:15:03;;;;;;;140.83;131.77;;;5.60;99.90;;;;;;5008203;28;20251;-80
2022/01/14 10:17:44;;;;;;;140.83;131.73;;;5.70;99.90;;;;;;5009734;28;20213;-81
2022/01/14 10:20:13;;;;;;;139.00;130.50;;;5.70;99.90;;;;;;4987509;28;20265;-80
2022/01/14 10:22:44;;;;;;;136.90;127.87;;;5.80;99.90;;;;;;5003459;28;20176;-81
2022/01/14 10:25:17;;;;;;;129.87;121.17;;;5.90;99.90;;;;;;4991545;28;20196;-81
2022/01/14 10:27:49;;;;;;;129.53;121.13;;;5.90;99.90;;;;;;5008372;28;20244;-81
2022/01/14 10:30:28;;;;;;;130.03;121.73;;;6.00;99.90;;;;;;5006368;28;20227;-79
2022/01/14 10:32:58;;;;;;;123.10;115.43;;;6.10;99.90;;;;;;5008273;28;20203;-81
2022/01/14 10:35:26;;;;;;;122.10;114.53;;;6.10;99.90;;;;;;5002464;28;20216;-81
2022/01/14 10:37:55;;;;;;;120.30;112.67;;;6.10;99.90;;;;;;5010769;28;20176;-80
2022/01/14 10:40:23;;;;;;;122.37;113.93;;;6.10;99.90;;;;;;5001493;28;20661;-81
2022/01/14 10:42:51;;;;;;;123.87;115.87;;;6.10;99.90;;;;;;5011413;28;20297;-81
2022/01/14 10:45:23;;;;;;;118.50;110.50;;;6.10;99.90;;;;;;5005526;28;20194;-80
2022/01/14 10:48:07;;;;;;;121.10;113.00;;;6.20;99.90;;;;;;5011259;28;20276;-81
2022/01/14 10:50:35;;;;;;;120.63;112.90;;;6.20;99.90;;;;;;5007151;28;20180;-81
2022/01/14 10:53:03;;;;;;;120.80;112.67;;;6.30;99.90;;;;;;5005969;28;20188;-81
2022/01/14 10:55:34;;;;;;;117.53;109.80;;;6.30;99.90;;;;;;4997932;28;20258;-80
2022/01/14 10:58:02;;;;;;;116.87;109.03;;;6.30;99.90;;;;;;5001775;28;20997;-81
2022/01/14 11:00:28;;;;;;;111.23;104.43;;;6.30;99.90;;;;;;5009517;28;20265;-81
2022/01/14 11:02:56;;;;;;;115.10;107.80;;;6.40;99.90;;;;;;4989858;28;20285;-81
2022/01/14 11:05:24;;;;;;;115.53;107.77;;;6.30;99.90;;;;;;5005449;28;20189;-82
2022/01/14 11:07:51;;;;;;;118.37;110.57;;;6.40;99.90;;;;;;5002531;28;20619;-81
2022/01/14 11:10:24;;;;;;;115.83;108.00;;;6.40;99.90;;;;;;5014109;28;21082;-82
2022/01/14 11:12:54;;;;;;;115.77;107.70;;;6.40;99.90;;;;;;5001370;28;20267;-81
2022/01/14 11:15:22;;;;;;;116.87;109.37;;;6.50;99.90;;;;;;4988381;28;20666;-81
2022/01/14 11:17:53;;;;;;;113.63;106.27;;;6.60;99.90;;;;;;4992822;28;20303;-81
2022/01/14 11:20:25;;;;;;;114.30;107.00;;;6.60;99.90;;;;;;5010092;28;20306;-80
2022/01/14 11:26:11;;;;;;;112.40;105.10;;;6.70;99.90;;;;;;5009645;28;20199;-81
2022/01/14 11:28:41;;;;;;;111.10;103.80;;;6.80;99.90;;;;;;5006532;28;20211;-81
2022/01/14 11:31:36;;;;;;;109.93;102.97;;;6.80;99.90;;;;;;5009519;28;20176;-83
2022/01/14 11:34:05;;;;;;;108.63;101.23;;;6.90;99.90;;;;;;5009811;28;20175;-81
2022/01/14 11:37:03;;;;;;;106.80;99.43;;;7.00;99.90;;;;;;5007122;28;20215;-81
2022/01/14 11:39:31;;;;;;;109.57;102.43;;;7.00;99.90;;;;;;5011260;28;20260;-82
2022/01/14 11:41:59;;;;;;;106.93;100.07;;;7.10;99.90;;;;;;4982059;28;20226;-82
2022/01/14 11:45:01;;;;;;;106.10;98.40;;;7.10;99.90;;;;;;5008596;28;20527;-80
2022/01/14 11:47:28;;;;;;;101.13;94.67;;;7.20;99.90;;;;;;4933040;28;20273;-81
2022/01/14 11:49:58;;;;;;;103.87;96.77;;;7.10;99.90;;;;;;5008192;28;20200;-80
2022/01/14 11:52:40;;;;;;;104.43;97.73;;;7.10;99.90;;;;;;5011767;28;20188;-82
2022/01/14 11:55:22;;;;;;;104.30;97.07;;;7.20;99.90;;;;;;5011281;28;20916;-81
2022/01/14 11:57:52;;;;;;;102.77;95.87;;;7.20;99.90;;;;;;5006039;28;20188;-81
2022/01/14 12:00:39;;;;;;;101.83;94.87;;;7.20;99.90;;;;;;5014577;28;20212;-81
2022/01/14 12:03:09;;;;;;;101.43;94.53;;;7.20;99.90;;;;;;5013232;28;20214;-82
2022/01/14 12:05:50;;;;;;;97.77;91.37;;;7.20;99.90;;;;;;5015172;28;20211;-81
2022/01/14 12:08:19;;;;;;;95.07;88.97;;;7.10;99.90;;;;;;5010447;28;20195;-82
2022/01/14 12:10:57;;;;;;;98.07;91.67;;;7.10;99.90;;;;;;4999474;28;20346;-81
2022/01/14 12:13:28;;;;;;;98.90;92.27;;;7.10;99.90;;;;;;5012470;28;20263;-82
2022/01/14 12:16:02;;;;;;;97.63;91.13;;;7.10;99.90;;;;;;5008735;28;20643;-82
2022/01/14 12:18:49;;;;;;;101.47;94.60;;;7.10;99.90;;;;;;5009465;28;20184;-79
2022/01/14 12:21:16;;;;;;;105.00;97.73;;;7.10;99.90;;;;;;5012575;28;20192;-80
2022/01/14 12:23:43;;;;;;;106.03;98.73;;;7.20;99.90;;;;;;4983873;28;20219;-81
2022/01/14 12:26:18;;;;;;;104.20;97.20;;;7.20;99.90;;;;;;4984906;28;20203;-81
2022/01/14 12:28:45;;;;;;;104.63;97.30;;;7.20;99.90;;;;;;5006637;28;20600;-79
2022/01/14 12:31:12;;;;;;;107.00;99.03;;;7.20;99.90;;;;;;5007595;28;20698;-80
2022/01/14 12:33:41;;;;;;;105.00;97.97;;;7.20;99.90;;;;;;5011657;28;20211;-81
2022/01/14 12:36:22;;;;;;;106.03;98.77;;;7.20;99.90;;;;;;5007771;28;20184;-81
2022/01/14 12:38:49;;;;;;;110.77;102.63;;;7.20;99.90;;;;;;5006314;28;20254;-81
2022/01/14 12:41:18;;;;;;;108.00;101.07;;;7.30;99.90;;;;;;4976760;28;20283;-80
2022/01/14 12:43:53;;;;;;;107.37;99.43;;;7.30;99.90;;;;;;5006595;28;20197;-80
2022/01/14 12:46:41;;;;;;;105.60;98.47;;;7.30;99.90;;;;;;5007396;28;20192;-82
2022/01/14 12:49:19;;;;;;;106.07;99.00;;;7.30;99.90;;;;;;4991196;28;20181;-82
2022/01/14 12:51:44;;;;;;;104.87;97.77;;;7.30;99.90;;;;;;5006090;28;20251;-80